Time;durP1;ratioP1;P1;durP2;ratioP2;P2;SDS_P1;SDS_P2;PMS_P1;PMS_P2;Temp;Humidity;BMP_temperature;BMP_pressure;BME280_temperature;BME280_humidity;BME280_pressure;Samples;Min_cycle;Max_cycle;Signal;HPM_P1;HPM_P2
2022/12/05 07:13:28;;;;;;;14.35;8.02;;;5.30;99.90;;;;;;5391497;23;19923;-79
2022/12/05 07:15:57;;;;;;;14.13;8.15;;;5.30;99.90;;;;;;4915101;29;20052;-78
2022/12/05 07:18:24;;;;;;;13.73;8.32;;;5.30;99.90;;;;;;4910959;29;20052;-79
2022/12/05 07:20:58;;;;;;;16.85;8.30;;;5.20;99.90;;;;;;4910588;29;20413;-78
2022/12/05 07:23:41;;;;;;;;;;;5.20;99.90;;;;;;4912044;29;20048;-79
2022/12/05 07:26:14;;;;;;;9.57;6.22;;;5.20;99.90;;;;;;4925554;29;19923;-78
2022/12/05 07:28:40;;;;;;;10.43;6.60;;;5.20;99.90;;;;;;4923300;29;20051;-79
2022/12/05 07:31:09;;;;;;;12.30;6.97;;;5.20;99.90;;;;;;4921165;29;20056;-79
2022/12/05 07:33:37;;;;;;;10.80;6.18;;;5.20;99.90;;;;;;4921104;29;20052;-79
2022/12/05 07:36:07;;;;;;;10.95;6.55;;;5.10;99.90;;;;;;4935985;29;20106;-80
2022/12/05 07:38:34;;;;;;;9.48;5.95;;;5.10;99.90;;;;;;4919213;29;20056;-80
2022/12/05 07:41:05;;;;;;;10.27;5.70;;;5.10;99.90;;;;;;4918967;29;20054;-81
2022/12/05 07:43:39;;;;;;;10.02;5.30;;;5.10;99.90;;;;;;4926326;29;20043;-79
2022/12/05 07:46:07;;;;;;;8.38;5.55;;;5.10;99.90;;;;;;4928211;29;20047;-79
2022/12/05 07:48:34;;;;;;;9.75;5.32;;;5.20;99.90;;;;;;4909378;29;20048;-79
2022/12/05 07:51:03;;;;;;;6.38;4.45;;;5.20;99.90;;;;;;4922410;29;20064;-79
2022/12/05 07:53:31;;;;;;;8.15;5.00;;;5.20;99.90;;;;;;4901426;29;20414;-79
2022/12/05 07:55:59;;;;;;;9.63;6.40;;;5.30;99.90;;;;;;4929165;29;20058;-79
2022/12/05 07:58:28;;;;;;;10.82;6.63;;;5.30;99.90;;;;;;4932962;29;20119;-79
2022/12/05 08:00:55;;;;;;;7.88;5.63;;;5.30;99.90;;;;;;4934830;29;20052;-79
2022/12/05 08:03:22;;;;;;;11.35;6.85;;;5.30;99.90;;;;;;4931885;29;20047;-79
2022/12/05 08:05:49;;;;;;;10.13;6.30;;;5.30;99.90;;;;;;4929362;29;20050;-78
2022/12/05 08:08:16;;;;;;;11.95;7.25;;;5.40;99.90;;;;;;4927716;29;20055;-79
2022/12/05 08:10:42;;;;;;;11.38;7.30;;;5.40;99.90;;;;;;4918717;29;20056;-79
2022/12/05 08:13:09;;;;;;;11.48;7.85;;;5.40;99.90;;;;;;4922603;29;20044;-79
2022/12/05 08:15:36;;;;;;;15.63;8.55;;;5.40;99.90;;;;;;4925276;29;20048;-79
2022/12/05 08:18:02;;;;;;;14.90;9.35;;;5.40;99.90;;;;;;4926477;29;20417;-79
2022/12/05 08:20:29;;;;;;;13.23;8.07;;;5.30;99.90;;;;;;4924209;29;20040;-80
2022/12/05 08:22:57;;;;;;;13.75;7.75;;;5.30;99.90;;;;;;4922238;29;20052;-80
2022/12/05 08:25:23;;;;;;;13.70;8.95;;;5.40;99.90;;;;;;4925081;29;20067;-79
2022/12/05 08:27:50;;;;;;;14.95;8.90;;;5.40;99.90;;;;;;4924722;29;20074;-80
2022/12/05 08:30:17;;;;;;;12.23;7.75;;;5.50;99.90;;;;;;4928620;29;20078;-79
2022/12/05 08:32:44;;;;;;;10.70;6.60;;;5.50;99.90;;;;;;4916057;29;20047;-80
2022/12/05 08:35:10;;;;;;;11.48;6.85;;;5.60;99.90;;;;;;4933751;29;20055;-79
2022/12/05 08:37:37;;;;;;;11.55;7.22;;;5.70;99.90;;;;;;4918189;29;20426;-80
2022/12/05 08:40:04;;;;;;;12.65;7.28;;;5.70;99.90;;;;;;4911077;28;20116;-79
2022/12/05 08:42:31;;;;;;;11.48;7.43;;;5.70;99.90;;;;;;4966032;28;20050;-80
2022/12/05 08:44:58;;;;;;;11.80;7.57;;;5.70;99.90;;;;;;4968572;28;20042;-80
2022/12/05 08:47:26;;;;;;;13.98;8.15;;;5.80;99.90;;;;;;4953785;28;20047;-79
2022/12/05 08:49:52;;;;;;;14.68;9.18;;;5.70;99.90;;;;;;4962274;28;20047;-80
2022/12/05 08:52:20;;;;;;;13.38;8.48;;;5.70;99.90;;;;;;4968036;28;20069;-79
2022/12/05 08:54:47;;;;;;;13.95;8.68;;;5.60;99.90;;;;;;4968639;28;20058;-79
2022/12/05 08:57:14;;;;;;;15.18;10.02;;;5.70;99.90;;;;;;4963437;28;20051;-79
2022/12/05 08:59:40;;;;;;;13.27;8.00;;;5.70;99.90;;;;;;4963402;28;20053;-79
2022/12/05 09:02:08;;;;;;;16.23;9.45;;;5.70;99.90;;;;;;4965211;28;20532;-79
2022/12/05 09:04:35;;;;;;;16.08;9.15;;;5.70;99.90;;;;;;4962817;28;20448;-79
2022/12/05 09:07:02;;;;;;;16.55;9.80;;;5.70;99.90;;;;;;4969600;28;20043;-79
2022/12/05 09:09:29;;;;;;;24.08;13.50;;;5.70;99.90;;;;;;4970551;28;20057;-80
2022/12/05 09:11:56;;;;;;;14.85;9.52;;;5.60;99.90;;;;;;4969743;28;20573;-79
2022/12/05 09:14:23;;;;;;;12.30;7.57;;;5.60;99.90;;;;;;4967243;28;20051;-78
2022/12/05 09:16:50;;;;;;;9.55;6.57;;;5.70;99.90;;;;;;4973817;28;20053;-79
2022/12/05 09:19:23;;;;;;;11.00;6.78;;;5.70;99.90;;;;;;4978621;28;20050;-78
2022/12/05 09:21:50;;;;;;;11.15;6.53;;;5.70;99.90;;;;;;4971008;28;20447;-79
2022/12/05 09:24:17;;;;;;;9.40;5.68;;;5.70;99.90;;;;;;4974936;28;20058;-79
2022/12/05 09:26:44;;;;;;;8.07;5.32;;;5.80;99.90;;;;;;4962863;28;20047;-79
2022/12/05 09:29:12;;;;;;;8.52;5.38;;;5.80;99.90;;;;;;4970586;28;20456;-79
2022/12/05 09:31:43;;;;;;;8.48;5.38;;;5.90;99.90;;;;;;4971477;28;20129;-78
2022/12/05 09:34:12;;;;;;;8.02;4.57;;;5.90;99.90;;;;;;4968830;28;20137;-79
2022/12/05 09:36:39;;;;;;;6.20;4.50;;;5.90;99.90;;;;;;4968443;28;20051;-79
2022/12/05 09:39:07;;;;;;;5.95;4.25;;;6.00;99.90;;;;;;4946661;28;20117;-79
2022/12/05 09:42:04;;;;;;;7.13;3.95;;;6.00;99.90;;;;;;4961089;28;20074;-81
2022/12/05 09:44:57;;;;;;;5.55;3.80;;;6.10;99.90;;;;;;4973203;28;20093;-80
2022/12/05 09:47:34;;;;;;;8.50;4.00;;;6.10;99.90;;;;;;4960423;28;20496;-80
2022/12/05 09:50:28;;;;;;;7.22;4.40;;;6.20;99.90;;;;;;4958959;28;20047;-78
2022/12/05 09:52:58;;;;;;;7.10;3.80;;;6.20;99.90;;;;;;4958800;28;20133;-81
2022/12/05 09:55:29;;;;;;;6.20;4.97;;;6.20;99.90;;;;;;4968450;28;20596;-79
2022/12/05 09:57:59;;;;;;;5.13;3.35;;;6.20;99.90;;;;;;4967522;28;20314;-80
2022/12/05 10:00:28;;;;;;;5.30;3.70;;;6.20;99.90;;;;;;4962268;28;20047;-80
2022/12/05 10:03:36;;;;;;;4.30;3.05;;;6.30;99.90;;;;;;4964808;28;20488;-80
2022/12/05 10:06:24;;;;;;;6.32;3.88;;;6.40;99.90;;;;;;4965182;28;20062;-80
2022/12/05 10:09:21;;;;;;;8.18;4.47;;;6.40;99.90;;;;;;4957875;28;20047;-80
2022/12/05 10:12:12;;;;;;;5.50;3.80;;;6.40;99.90;;;;;;4967301;28;20051;-80
2022/12/05 10:14:51;;;;;;;5.93;3.95;;;6.50;99.90;;;;;;4966621;28;20063;-80
2022/12/05 10:17:25;;;;;;;6.45;3.83;;;6.50;99.90;;;;;;4965957;28;20051;-81
2022/12/05 10:19:56;;;;;;;6.22;4.10;;;6.50;99.90;;;;;;4970239;28;20138;-80
2022/12/05 10:22:55;;;;;;;5.78;4.10;;;6.60;99.90;;;;;;4960427;28;20049;-81
2022/12/05 10:25:26;;;;;;;6.60;3.25;;;6.60;99.90;;;;;;4964609;28;20471;-81
2022/12/05 10:28:00;;;;;;;4.13;2.90;;;6.70;99.90;;;;;;4966611;28;20422;-81
2022/12/05 10:30:31;;;;;;;4.25;2.78;;;6.70;99.90;;;;;;4963377;28;20047;-81
2022/12/05 10:33:19;;;;;;;8.05;4.93;;;6.70;99.90;;;;;;4963385;28;20130;-82
2022/12/05 10:35:52;;;;;;;9.25;6.10;;;6.80;99.90;;;;;;4966219;28;20449;-81
2022/12/05 10:38:24;;;;;;;6.97;4.57;;;6.80;99.90;;;;;;4950272;28;20143;-81
2022/12/05 10:40:54;;;;;;;5.57;4.10;;;6.80;99.90;;;;;;4947269;28;20046;-81
2022/12/05 10:43:28;;;;;;;;;;;6.80;99.90;;;;;;4966399;28;20526;-82
2022/12/05 10:45:55;;;;;;;8.00;4.38;;;6.80;99.90;;;;;;4964045;28;20012;-82
2022/12/05 10:48:22;;;;;;;5.97;4.07;;;6.80;99.90;;;;;;4947092;28;20054;-81
2022/12/05 10:50:51;;;;;;;5.60;3.92;;;6.80;99.90;;;;;;4953812;28;20062;-81
2022/12/05 10:53:23;;;;;;;6.87;3.67;;;6.70;99.90;;;;;;4957064;28;20054;-81
2022/12/05 10:55:51;;;;;;;5.60;3.40;;;6.70;99.90;;;;;;4973152;28;20047;-81
2022/12/05 10:58:37;;;;;;;6.53;3.65;;;6.70;99.90;;;;;;4972731;28;20105;-81
2022/12/05 11:01:12;;;;;;;6.95;3.70;;;6.70;99.90;;;;;;4975536;28;20110;-81
2022/12/05 11:03:42;;;;;;;5.70;3.85;;;6.70;99.90;;;;;;4971794;28;20082;-82
2022/12/05 11:06:27;;;;;;;6.50;4.18;;;6.70;99.90;;;;;;4967498;28;20055;-82
2022/12/05 11:09:18;;;;;;;5.97;3.30;;;6.70;99.90;;;;;;4969264;28;20059;-81
2022/12/05 11:12:04;;;;;;;7.85;3.38;;;6.70;99.90;;;;;;4964821;28;20043;-81
2022/12/05 11:14:33;;;;;;;5.85;3.60;;;6.80;99.90;;;;;;4963317;28;20057;-82
2022/12/05 11:17:02;;;;;;;4.18;2.90;;;6.80;99.90;;;;;;4969440;28;20055;-82
2022/12/05 11:19:37;;;;;;;5.22;3.65;;;6.80;99.90;;;;;;4965074;28;20051;-82
2022/12/05 11:22:06;;;;;;;5.68;3.90;;;6.80;99.90;;;;;;4962525;28;20054;-81
2022/12/05 11:24:36;;;;;;;6.07;3.85;;;6.90;99.90;;;;;;4959198;28;20047;-81
2022/12/05 11:27:15;;;;;;;6.22;3.75;;;6.90;99.90;;;;;;4953196;28;20054;-81
2022/12/05 11:29:51;;;;;;;5.35;3.85;;;6.90;99.90;;;;;;4962341;28;20483;-82
2022/12/05 11:32:24;;;;;;;5.97;3.97;;;6.90;99.90;;;;;;4949440;28;20055;-80
2022/12/05 11:35:15;;;;;;;7.80;4.18;;;7.00;99.90;;;;;;4965662;28;20497;-81
2022/12/05 11:37:49;;;;;;;9.38;5.15;;;7.00;99.90;;;;;;4946000;28;20066;-82
2022/12/05 11:40:24;;;;;;;6.38;4.45;;;7.10;99.90;;;;;;4967914;28;20051;-82
2022/12/05 11:43:02;;;;;;;;;;;7.10;99.90;;;;;;4948177;28;20066;-81
2022/12/05 11:45:38;;;;;;;7.03;4.50;;;7.10;99.90;;;;;;4962834;28;19922;-81
2022/12/05 11:48:47;;;;;;;7.43;4.93;;;7.10;99.90;;;;;;5082060;27;20453;-80
2022/12/05 11:51:50;;;;;;;6.45;4.38;;;7.10;99.90;;;;;;5081144;28;20052;-82
2022/12/05 11:54:38;;;;;;;5.60;3.30;;;7.10;99.90;;;;;;5098937;28;20051;-80
2022/12/05 11:57:40;;;;;;;8.35;4.10;;;7.10;99.90;;;;;;5104634;28;20562;-81
2022/12/05 12:00:18;;;;;;;7.07;3.95;;;7.10;99.90;;;;;;5097113;28;20382;-81
2022/12/05 12:03:14;;;;;;;5.93;3.67;;;7.10;99.90;;;;;;5101056;28;20052;-80
2022/12/05 12:05:53;;;;;;;9.20;4.85;;;7.10;99.90;;;;;;5097093;28;20052;-80
2022/12/05 12:08:51;;;;;;;7.93;4.10;;;7.10;99.90;;;;;;5091595;28;20052;-80
2022/12/05 12:11:28;;;;;;;5.43;3.70;;;7.10;99.90;;;;;;5097792;28;20102;-80
2022/12/05 12:14:09;;;;;;;5.95;4.00;;;7.20;99.90;;;;;;5109164;28;20040;-81
2022/12/05 12:16:35;;;;;;;6.38;4.40;;;7.20;99.90;;;;;;5105627;28;20051;-81
2022/12/05 12:19:37;;;;;;;7.10;4.50;;;7.20;99.90;;;;;;5097000;28;20044;-82
2022/12/05 12:22:41;;;;;;;5.63;4.43;;;7.20;99.90;;;;;;5100094;28;20074;-82
2022/12/05 12:25:31;;;;;;;7.63;4.70;;;7.20;99.90;;;;;;5097370;28;20052;-81
2022/12/05 12:28:13;;;;;;;7.93;5.13;;;7.30;99.90;;;;;;5088135;28;20051;-81
2022/12/05 12:31:08;;;;;;;8.30;5.05;;;7.40;99.90;;;;;;5084651;28;20556;-82
2022/12/05 12:34:19;;;;;;;8.25;4.57;;;7.50;99.90;;;;;;5093394;28;20043;-82
2022/12/05 12:37:20;;;;;;;8.88;5.20;;;7.70;99.90;;;;;;5099504;28;20048;-83
2022/12/05 12:40:41;;;;;;;11.13;6.60;;;7.90;99.90;;;;;;5099471;28;20051;-82
2022/12/05 12:43:13;;;;;;;6.95;4.07;;;8.00;99.90;;;;;;5074026;28;20045;-81
2022/12/05 12:46:23;;;;;;;6.60;4.78;;;8.10;99.90;;;;;;5065353;28;20044;-82
2022/12/05 12:49:00;;;;;;;9.65;6.00;;;8.10;99.90;;;;;;5086989;28;20306;-80
2022/12/05 12:51:30;;;;;;;5.55;3.92;;;8.20;99.90;;;;;;5085935;28;20055;-79
2022/12/05 12:54:15;;;;;;;4.43;3.17;;;8.30;99.90;;;;;;5084601;28;20051;-80
2022/12/05 12:57:17;;;;;;;7.50;3.97;;;8.30;99.90;;;;;;5104717;28;20044;-79
2022/12/05 13:00:11;;;;;;;4.20;2.60;;;8.30;99.90;;;;;;5091042;28;20080;-79
2022/12/05 13:02:50;;;;;;;4.13;2.47;;;8.30;99.90;;;;;;5089060;28;20056;-80
2022/12/05 13:05:35;;;;;;;3.97;2.73;;;8.30;99.90;;;;;;5086722;28;20050;-79
2022/12/05 13:08:21;;;;;;;4.30;3.00;;;8.40;99.90;;;;;;5081567;28;20044;-79
2022/12/05 13:10:48;;;;;;;5.30;3.20;;;8.40;99.90;;;;;;5078045;28;20508;-79
2022/12/05 13:13:33;;;;;;;4.38;2.92;;;8.40;99.90;;;;;;5076733;28;20056;-79
2022/12/05 13:16:01;;;;;;;4.95;3.30;;;8.20;99.90;;;;;;5085474;28;20059;-80
2022/12/05 13:18:28;;;;;;;4.95;3.50;;;8.10;99.90;;;;;;5091511;28;20052;-79
2022/12/05 13:20:58;;;;;;;4.05;2.83;;;8.00;99.90;;;;;;5078033;28;20051;-80
2022/12/05 13:23:29;;;;;;;5.93;3.55;;;7.90;99.90;;;;;;5079279;28;20545;-80
2022/12/05 13:25:59;;;;;;;5.40;3.60;;;7.70;99.90;;;;;;5083590;28;20045;-80
2022/12/05 13:28:33;;;;;;;4.03;3.08;;;7.70;99.90;;;;;;5077616;28;20524;-79
2022/12/05 13:31:01;;;;;;;7.13;3.85;;;7.50;99.90;;;;;;5079632;28;20512;-80
2022/12/05 13:33:42;;;;;;;6.75;3.83;;;7.50;99.90;;;;;;5081410;28;20044;-80
2022/12/05 13:42:11;;;;;;;5.00;3.42;;;7.30;99.90;;;;;;5082761;28;20041;-78
2022/12/05 13:44:44;;;;;;;4.10;3.07;;;7.30;99.90;;;;;;5087099;28;20076;-78
2022/12/05 13:47:39;;;;;;;4.75;3.45;;;7.20;99.90;;;;;;5071616;28;20124;-78
2022/12/05 13:50:09;;;;;;;5.55;3.90;;;7.20;99.90;;;;;;5073901;28;20048;-78
2022/12/05 13:52:52;;;;;;;7.53;3.50;;;7.20;99.90;;;;;;5080315;28;20044;-78
2022/12/05 13:55:27;;;;;;;5.18;2.97;;;7.20;99.90;;;;;;5077693;28;20054;-78
2022/12/05 13:58:21;;;;;;;5.72;3.35;;;7.30;99.90;;;;;;5071744;28;20486;-79
2022/12/05 14:00:48;;;;;;;5.95;3.08;;;7.20;99.90;;;;;;5073650;28;20516;-80
2022/12/05 14:03:44;;;;;;;4.20;3.13;;;7.20;99.90;;;;;;5071809;28;20531;-79
2022/12/05 14:06:33;;;;;;;5.65;2.90;;;7.20;99.90;;;;;;5082361;28;20051;-79
2022/12/05 14:09:01;;;;;;;5.47;3.00;;;7.20;99.90;;;;;;5086005;28;20040;-79
2022/12/05 14:11:28;;;;;;;4.28;3.17;;;7.20;99.90;;;;;;5084891;28;20289;-78
2022/12/05 14:13:55;;;;;;;8.43;4.72;;;7.10;99.90;;;;;;5081396;28;20428;-79
2022/12/05 14:16:29;;;;;;;7.00;4.50;;;7.10;99.90;;;;;;5076081;28;20071;-78
2022/12/05 14:19:11;;;;;;;5.45;3.63;;;7.10;99.90;;;;;;5076901;28;20051;-78
2022/12/05 14:21:50;;;;;;;6.03;4.07;;;7.10;99.90;;;;;;5091339;28;20055;-78
2022/12/05 14:24:38;;;;;;;6.72;4.05;;;7.10;99.90;;;;;;5090511;28;20048;-78
2022/12/05 14:27:25;;;;;;;7.93;4.03;;;7.10;99.90;;;;;;5086839;28;20075;-78
2022/12/05 14:30:19;;;;;;;10.00;4.72;;;7.10;99.90;;;;;;5079740;28;20044;-78
2022/12/05 14:32:46;;;;;;;7.22;4.35;;;7.00;99.90;;;;;;5082836;28;20408;-79
2022/12/05 14:35:46;;;;;;;7.90;5.00;;;7.00;99.90;;;;;;5081230;28;20049;-78
2022/12/05 14:38:32;;;;;;;5.30;3.75;;;7.00;99.90;;;;;;5082988;28;20059;-78
2022/12/05 14:41:16;;;;;;;9.70;4.43;;;6.90;99.90;;;;;;5076844;28;20056;-77
2022/12/05 14:43:43;;;;;;;8.32;4.95;;;6.90;99.90;;;;;;5059057;28;20052;-78
2022/12/05 14:46:27;;;;;;;8.82;5.32;;;6.80;99.90;;;;;;5088770;28;20109;-78
2022/12/05 14:48:55;;;;;;;7.95;5.60;;;6.70;99.90;;;;;;5089893;28;20135;-77
2022/12/05 14:51:30;;;;;;;11.20;5.32;;;6.70;99.90;;;;;;5076787;28;20053;-78
2022/12/05 14:54:06;;;;;;;8.02;5.03;;;6.60;99.90;;;;;;5085860;28;20051;-77
2022/12/05 14:56:47;;;;;;;8.68;5.40;;;6.60;99.90;;;;;;5084323;28;20067;-77
2022/12/05 14:59:27;;;;;;;9.10;6.25;;;6.60;99.90;;;;;;5079546;28;20052;-77
2022/12/05 15:01:57;;;;;;;8.80;5.80;;;6.50;99.90;;;;;;5080877;28;20049;-77
2022/12/05 15:04:43;;;;;;;;;;;6.50;99.90;;;;;;5094286;28;20470;-77
2022/12/05 15:07:20;;;;;;;5.55;3.42;;;6.50;99.90;;;;;;5082281;28;19920;-77
2022/12/05 15:10:07;;;;;;;4.43;3.13;;;6.50;99.90;;;;;;5073597;28;20047;-79
2022/12/05 15:12:41;;;;;;;7.05;5.15;;;6.50;99.90;;;;;;5069293;28;20044;-79
2022/12/05 15:15:30;;;;;;;6.72;3.83;;;6.50;99.90;;;;;;5074688;28;20562;-79
2022/12/05 15:18:13;;;;;;;5.88;3.60;;;6.40;99.90;;;;;;5072346;28;20044;-79
2022/12/05 15:21:05;;;;;;;6.63;3.50;;;6.40;99.90;;;;;;5076536;28;20051;-79
2022/12/05 15:23:43;;;;;;;6.30;3.42;;;6.30;99.90;;;;;;5075360;28;20135;-79
2022/12/05 15:26:18;;;;;;;6.32;4.07;;;6.30;99.90;;;;;;5087310;28;20423;-80
2022/12/05 15:29:13;;;;;;;7.50;4.00;;;6.20;99.90;;;;;;5092356;28;20056;-80
2022/12/05 15:31:54;;;;;;;8.88;4.47;;;6.20;99.90;;;;;;5083266;28;20059;-80
2022/12/05 15:34:30;;;;;;;6.38;4.05;;;6.10;99.90;;;;;;5085920;28;20390;-80
2022/12/05 15:37:32;;;;;;;5.57;3.58;;;6.10;99.90;;;;;;5084748;28;20051;-79
2022/12/05 15:40:08;;;;;;;6.57;4.03;;;6.00;99.90;;;;;;5076301;28;20051;-79
2022/12/05 15:42:36;;;;;;;8.52;5.15;;;6.00;99.90;;;;;;5075064;28;20044;-80
2022/12/05 15:45:12;;;;;;;7.32;4.65;;;6.00;99.90;;;;;;5073568;28;20158;-79
2022/12/05 15:47:40;;;;;;;8.00;4.82;;;6.00;99.90;;;;;;5086718;28;20091;-82
2022/12/05 15:50:36;;;;;;;6.47;4.28;;;6.00;99.90;;;;;;5077808;28;20050;-79
2022/12/05 15:53:08;;;;;;;6.95;3.88;;;6.00;99.90;;;;;;5081411;28;20051;-79
2022/12/05 15:55:40;;;;;;;5.85;3.63;;;6.00;99.90;;;;;;5075237;28;20485;-80
2022/12/05 15:58:30;;;;;;;7.50;3.00;;;6.00;99.90;;;;;;5079071;28;20045;-79
2022/12/05 16:01:02;;;;;;;6.07;3.50;;;6.00;99.90;;;;;;5073156;28;20047;-80
2022/12/05 16:03:52;;;;;;;5.32;3.45;;;6.10;99.90;;;;;;5073829;28;20052;-79
2022/12/05 16:06:30;;;;;;;6.97;3.92;;;6.10;99.90;;;;;;5062684;28;20053;-79
2022/12/05 16:08:59;;;;;;;10.05;5.13;;;6.10;99.90;;;;;;5078990;28;20063;-79
2022/12/05 16:11:26;;;;;;;6.22;3.85;;;6.10;99.90;;;;;;5088088;28;20064;-80
2022/12/05 16:13:56;;;;;;;5.70;3.70;;;6.10;99.90;;;;;;5083089;28;20052;-79
2022/12/05 16:16:28;;;;;;;5.15;3.42;;;6.10;99.90;;;;;;5076069;28;20049;-79
2022/12/05 16:18:58;;;;;;;5.85;3.78;;;6.10;99.90;;;;;;5078700;28;20060;-80
2022/12/05 16:21:37;;;;;;;4.18;3.28;;;6.20;99.90;;;;;;5078375;28;20056;-79
2022/12/05 16:24:12;;;;;;;6.85;4.72;;;6.20;99.90;;;;;;5069273;28;20110;-78
2022/12/05 16:26:40;;;;;;;6.75;4.53;;;6.20;99.90;;;;;;5074266;28;20044;-79
2022/12/05 16:29:27;;;;;;;8.10;4.38;;;6.20;99.90;;;;;;5081367;28;20048;-81
2022/12/05 16:32:01;;;;;;;5.32;3.78;;;6.20;99.90;;;;;;5062615;28;20061;-79
2022/12/05 16:34:31;;;;;;;4.28;2.67;;;6.20;99.90;;;;;;5075558;28;20055;-79
2022/12/05 16:36:58;;;;;;;8.00;4.07;;;6.20;99.90;;;;;;5078584;28;20037;-79
2022/12/05 16:39:27;;;;;;;5.05;3.58;;;6.20;99.90;;;;;;5082632;28;20437;-79
2022/12/05 16:41:54;;;;;;;4.90;3.05;;;6.20;99.90;;;;;;5078573;28;20041;-79
2022/12/05 16:44:27;;;;;;;5.15;3.65;;;6.20;99.90;;;;;;5083134;28;20059;-78
2022/12/05 16:46:55;;;;;;;8.65;4.82;;;6.10;99.90;;;;;;5072761;28;20413;-79
2022/12/05 16:49:34;;;;;;;6.00;4.38;;;6.10;99.90;;;;;;5081169;28;20052;-79
2022/12/05 16:52:07;;;;;;;13.23;7.18;;;6.10;99.90;;;;;;5085260;28;20457;-79
2022/12/05 16:54:34;;;;;;;9.18;5.55;;;6.00;99.90;;;;;;5089216;28;20048;-79
2022/12/05 16:57:01;;;;;;;15.45;8.40;;;6.00;99.90;;;;;;5076401;28;20048;-79
2022/12/05 16:59:32;;;;;;;12.02;6.97;;;5.90;99.90;;;;;;5086468;28;20060;-79
2022/12/05 17:02:00;;;;;;;6.70;4.72;;;5.90;99.90;;;;;;5084097;28;20097;-78
2022/12/05 17:04:28;;;;;;;8.48;4.70;;;5.90;99.90;;;;;;5086934;28;20052;-78
2022/12/05 17:06:54;;;;;;;7.95;4.50;;;5.80;99.90;;;;;;5078258;28;20044;-78
2022/12/05 17:09:21;;;;;;;6.85;4.60;;;5.80;99.90;;;;;;5081552;28;20044;-78
2022/12/05 17:11:51;;;;;;;6.63;4.50;;;5.70;99.90;;;;;;5083890;28;20051;-78
2022/12/05 17:14:19;;;;;;;8.30;5.10;;;5.70;99.90;;;;;;5094432;28;20048;-78
2022/12/05 17:16:46;;;;;;;6.55;4.22;;;5.70;99.90;;;;;;5074466;28;20048;-79
2022/12/05 17:19:13;;;;;;;14.15;7.63;;;5.60;99.90;;;;;;5086192;28;20040;-79
2022/12/05 17:21:41;;;;;;;8.25;4.97;;;5.60;99.90;;;;;;5082766;28;20048;-79
2022/12/05 17:24:16;;;;;;;9.13;5.53;;;5.60;99.90;;;;;;5081123;28;20056;-79
2022/12/05 17:26:43;;;;;;;7.13;5.00;;;5.60;99.90;;;;;;5075748;28;20055;-79
2022/12/05 17:29:11;;;;;;;4.65;3.70;;;5.60;99.90;;;;;;5080172;28;20605;-79
2022/12/05 17:31:37;;;;;;;8.15;4.82;;;5.70;99.90;;;;;;5075743;28;20045;-79
2022/12/05 17:34:14;;;;;;;11.52;6.05;;;5.70;99.90;;;;;;5084248;28;20169;-79
2022/12/05 17:36:41;;;;;;;5.47;3.65;;;5.70;99.90;;;;;;5084402;28;20051;-79
2022/12/05 17:39:08;;;;;;;4.53;3.17;;;5.60;99.90;;;;;;5091767;28;20055;-79
2022/12/05 17:41:36;;;;;;;8.88;4.78;;;5.60;99.90;;;;;;5078546;28;20055;-79
2022/12/05 17:44:05;;;;;;;6.03;3.95;;;5.50;99.90;;;;;;5081606;28;20075;-79
2022/12/05 17:46:32;;;;;;;6.55;4.47;;;5.50;99.90;;;;;;5071718;28;20059;-80
2022/12/05 17:48:59;;;;;;;4.45;3.20;;;5.50;99.90;;;;;;5086714;28;20077;-79
2022/12/05 17:51:26;;;;;;;6.70;4.45;;;5.40;99.90;;;;;;5078304;28;20056;-80
2022/12/05 17:53:53;;;;;;;9.90;5.25;;;5.40;99.90;;;;;;5080999;28;20044;-80
2022/12/05 17:56:20;;;;;;;10.73;6.50;;;5.40;99.90;;;;;;5077612;28;20051;-79
2022/12/05 17:58:47;;;;;;;11.73;6.15;;;5.30;99.90;;;;;;5086337;28;20048;-78
2022/12/05 18:01:16;;;;;;;8.93;6.15;;;5.20;99.90;;;;;;5074277;28;20139;-78
2022/12/05 18:03:43;;;;;;;5.30;3.90;;;5.20;99.90;;;;;;5083091;28;20051;-78
2022/12/05 18:06:10;;;;;;;8.27;4.70;;;5.20;99.90;;;;;;5075728;28;20433;-78
2022/12/05 18:08:38;;;;;;;7.07;4.90;;;5.20;99.90;;;;;;5077502;28;20401;-78
2022/12/05 18:11:05;;;;;;;8.00;4.82;;;5.20;99.90;;;;;;5076897;28;20075;-78
2022/12/05 18:13:33;;;;;;;8.00;5.20;;;5.20;99.90;;;;;;5071848;28;20505;-78
2022/12/05 18:16:00;;;;;;;8.10;4.97;;;5.20;99.90;;;;;;5074422;28;20464;-78
2022/12/05 18:18:28;;;;;;;8.07;4.82;;;5.20;99.90;;;;;;5085470;28;20588;-78
2022/12/05 18:21:08;;;;;;;4.75;3.72;;;5.10;99.90;;;;;;5079628;28;20087;-79
2022/12/05 18:23:35;;;;;;;6.80;4.38;;;5.10;99.90;;;;;;5063827;28;20056;-78
2022/12/05 18:26:03;;;;;;;9.75;4.63;;;5.00;99.90;;;;;;5076169;28;20500;-78
2022/12/05 18:28:32;;;;;;;9.77;6.50;;;5.00;99.90;;;;;;5078499;28;20102;-78
2022/12/05 18:31:14;;;;;;;6.68;5.28;;;5.00;99.90;;;;;;5080559;28;20091;-78
2022/12/05 18:33:42;;;;;;;7.78;4.70;;;5.00;99.90;;;;;;5061535;28;20407;-79
2022/12/05 18:36:14;;;;;;;6.25;4.35;;;4.90;99.90;;;;;;5072922;28;20041;-79
2022/12/05 18:38:42;;;;;;;6.30;4.28;;;4.90;99.90;;;;;;5082427;28;20066;-78
2022/12/05 18:41:09;;;;;;;6.85;4.72;;;4.90;99.90;;;;;;5063752;28;20057;-78
2022/12/05 18:43:36;;;;;;;7.65;4.40;;;4.80;99.90;;;;;;5063681;28;20079;-79
2022/12/05 18:46:03;;;;;;;6.82;4.15;;;4.80;99.90;;;;;;5078728;28;20092;-78
2022/12/05 18:48:31;;;;;;;8.18;4.35;;;4.70;99.90;;;;;;5077400;28;20044;-78
2022/12/05 18:51:20;;;;;;;8.57;5.45;;;4.70;99.90;;;;;;5069124;28;20664;-79
2022/12/05 18:53:52;;;;;;;10.77;5.90;;;4.70;99.90;;;;;;5065915;28;20056;-79
2022/12/05 18:56:22;;;;;;;9.32;5.20;;;4.60;99.90;;;;;;5062931;28;20049;-78
2022/12/05 18:59:01;;;;;;;7.40;5.32;;;4.60;99.90;;;;;;5082185;28;20051;-78
2022/12/05 19:01:29;;;;;;;11.25;5.90;;;4.60;99.90;;;;;;5068503;28;20114;-78
2022/12/05 19:03:58;;;;;;;10.30;6.13;;;4.50;99.90;;;;;;5072687;28;20048;-77
2022/12/05 19:06:28;;;;;;;8.00;5.78;;;4.50;99.90;;;;;;5073758;28;20516;-78
2022/12/05 19:08:57;;;;;;;9.75;6.05;;;4.50;99.90;;;;;;5068916;28;20072;-79
2022/12/05 19:11:27;;;;;;;9.02;5.32;;;4.40;99.90;;;;;;5076178;28;20055;-79
2022/12/05 19:13:55;;;;;;;12.23;6.68;;;4.40;99.90;;;;;;5080154;28;20044;-79
2022/12/05 19:16:23;;;;;;;12.13;7.90;;;4.40;99.90;;;;;;5070779;28;20040;-79
2022/12/05 19:18:55;;;;;;;16.35;9.95;;;4.30;99.90;;;;;;5068939;28;20067;-79
2022/12/05 19:21:23;;;;;;;9.57;5.65;;;4.30;99.90;;;;;;5064555;28;20189;-80
2022/12/05 19:23:49;;;;;;;10.23;5.32;;;4.30;99.90;;;;;;5056348;28;20052;-79
2022/12/05 19:26:16;;;;;;;11.63;6.55;;;4.20;99.90;;;;;;5079302;28;20117;-78
2022/12/05 19:28:43;;;;;;;23.17;10.25;;;4.30;99.90;;;;;;5083165;28;20039;-79
2022/12/05 19:31:12;;;;;;;29.42;13.75;;;4.30;99.90;;;;;;5073681;28;20048;-79
2022/12/05 19:33:41;;;;;;;17.98;9.43;;;4.20;99.90;;;;;;5079620;28;20101;-79
2022/12/05 19:36:13;;;;;;;25.00;12.30;;;4.20;99.90;;;;;;5070869;28;20048;-79
2022/12/05 19:38:42;;;;;;;21.42;13.60;;;4.20;99.90;;;;;;5074357;28;20303;-79
2022/12/05 19:41:11;;;;;;;33.45;15.43;;;4.20;99.90;;;;;;5071925;28;20048;-79
2022/12/05 19:43:38;;;;;;;30.17;14.48;;;4.20;99.90;;;;;;5080722;28;20048;-79
2022/12/05 19:46:07;;;;;;;19.95;12.68;;;4.20;99.90;;;;;;5076077;28;20049;-79
2022/12/05 19:48:34;;;;;;;19.65;12.05;;;4.10;99.90;;;;;;5079182;28;20046;-80
2022/12/05 19:51:02;;;;;;;28.23;13.85;;;4.10;99.90;;;;;;5084409;28;20048;-78
2022/12/05 19:53:30;;;;;;;33.55;16.23;;;4.10;99.90;;;;;;5080437;28;20044;-78
2022/12/05 19:56:21;;;;;;;28.95;14.48;;;4.10;99.90;;;;;;5080556;28;20036;-78
2022/12/05 19:58:50;;;;;;;20.98;12.57;;;4.10;99.90;;;;;;5073322;28;20056;-80
2022/12/05 20:01:19;;;;;;;20.75;12.02;;;4.10;99.90;;;;;;5068869;28;20064;-80
2022/12/05 20:03:48;;;;;;;21.63;11.47;;;4.00;99.90;;;;;;5076511;28;20069;-79
2022/12/05 20:06:16;;;;;;;20.13;10.50;;;4.00;99.90;;;;;;5083666;28;20687;-79
2022/12/05 20:08:43;;;;;;;13.75;8.68;;;3.90;99.90;;;;;;5080600;28;20048;-79
2022/12/05 20:11:16;;;;;;;14.20;7.53;;;4.00;99.90;;;;;;5076312;28;20072;-79
2022/12/05 20:13:43;;;;;;;12.88;6.95;;;3.90;99.90;;;;;;5081465;28;20501;-79
2022/12/05 20:16:15;;;;;;;20.10;6.18;;;3.90;99.90;;;;;;5078817;28;20078;-79
2022/12/05 20:18:42;;;;;;;9.18;6.13;;;3.80;99.90;;;;;;5076084;28;20052;-79
2022/12/05 20:21:14;;;;;;;9.90;5.60;;;3.90;99.90;;;;;;5086108;28;20063;-80
2022/12/05 20:23:41;;;;;;;8.00;5.70;;;3.90;99.90;;;;;;5079497;28;20047;-80
2022/12/05 20:26:10;;;;;;;8.15;5.40;;;4.00;99.90;;;;;;5082260;28;20508;-80
2022/12/05 20:28:38;;;;;;;7.95;5.20;;;4.00;99.90;;;;;;5085659;28;20058;-80
2022/12/05 20:31:17;;;;;;;7.97;5.38;;;4.10;99.90;;;;;;5081435;28;20053;-80
2022/12/05 20:33:45;;;;;;;8.68;5.20;;;4.10;99.90;;;;;;5086360;28;20044;-80
2022/12/05 20:36:14;;;;;;;10.07;5.60;;;4.10;99.90;;;;;;5080362;28;20049;-80
2022/12/05 20:38:41;;;;;;;12.20;6.77;;;4.10;99.90;;;;;;5078381;28;20063;-80
2022/12/05 20:41:13;;;;;;;8.80;6.13;;;4.10;99.90;;;;;;5077680;28;20554;-80
2022/12/05 20:43:40;;;;;;;6.90;5.07;;;4.20;99.90;;;;;;5074128;28;20045;-80
2022/12/05 20:46:15;;;;;;;6.47;4.72;;;4.30;99.90;;;;;;5069190;28;20056;-80
2022/12/05 20:48:43;;;;;;;6.25;4.60;;;4.30;99.90;;;;;;5078608;28;20570;-80
2022/12/05 20:51:12;;;;;;;7.28;4.93;;;4.40;99.90;;;;;;5086132;28;20048;-80